sensor_id;sensor_type;location;lat;lon;timestamp;pressure;altitude;pressure_sealevel;temperature;humidity
56270;BME280;42176;43.240;27.880;2022-07-29T00:01:19;100191.50;;;22.23;84.36
56270;BME280;42176;43.240;27.880;2022-07-29T00:03:44;100190.75;;;22.21;84.38
56270;BME280;42176;43.240;27.880;2022-07-29T00:06:09;100187.16;;;22.20;83.55
56270;BME280;42176;43.240;27.880;2022-07-29T00:08:35;100187.41;;;22.17;83.75
56270;BME280;42176;43.240;27.880;2022-07-29T00:11:00;100186.72;;;22.14;82.36
56270;BME280;42176;43.240;27.880;2022-07-29T00:13:26;100184.34;;;22.09;81.69
56270;BME280;42176;43.240;27.880;2022-07-29T00:18:16;100191.28;;;22.13;83.25
56270;BME280;42176;43.240;27.880;2022-07-29T00:20:42;100191.06;;;22.16;83.72
56270;BME280;42176;43.240;27.880;2022-07-29T00:23:07;100193.66;;;22.18;82.84
56270;BME280;42176;43.240;27.880;2022-07-29T00:25:33;100192.03;;;22.15;83.66
56270;BME280;42176;43.240;27.880;2022-07-29T00:27:58;100192.13;;;22.14;84.12
56270;BME280;42176;43.240;27.880;2022-07-29T00:30:24;100192.38;;;22.11;84.44
56270;BME280;42176;43.240;27.880;2022-07-29T00:32:49;100189.97;;;22.06;84.72
56270;BME280;42176;43.240;27.880;2022-07-29T00:35:15;100184.56;;;22.06;84.22
56270;BME280;42176;43.240;27.880;2022-07-29T00:37:59;100199.91;;;22.05;84.62
56270;BME280;42176;43.240;27.880;2022-07-29T00:40:24;100193.63;;;22.05;85.01
56270;BME280;42176;43.240;27.880;2022-07-29T00:42:51;100199.03;;;22.05;84.64
56270;BME280;42176;43.240;27.880;2022-07-29T00:45:17;100193.94;;;22.00;84.69
56270;BME280;42176;43.240;27.880;2022-07-29T00:47:43;100182.19;;;22.01;84.58
56270;BME280;42176;43.240;27.880;2022-07-29T00:50:10;100180.66;;;21.97;83.73
56270;BME280;42176;43.240;27.880;2022-07-29T00:52:38;100182.19;;;22.01;84.17
56270;BME280;42176;43.240;27.880;2022-07-29T00:55:05;100181.44;;;21.99;83.71
56270;BME280;42176;43.240;27.880;2022-07-29T00:57:31;100182.63;;;21.95;83.71
56270;BME280;42176;43.240;27.880;2022-07-29T00:59:57;100172.25;;;21.89;84.01
56270;BME280;42176;43.240;27.880;2022-07-29T01:02:23;100182.84;;;21.92;84.14
56270;BME280;42176;43.240;27.880;2022-07-29T01:04:48;100183.25;;;21.86;84.26
56270;BME280;42176;43.240;27.880;2022-07-29T01:07:14;100187.13;;;21.82;83.87
56270;BME280;42176;43.240;27.880;2022-07-29T01:09:42;100190.78;;;21.81;84.23
56270;BME280;42176;43.240;27.880;2022-07-29T01:12:08;100191.22;;;21.74;84.89
56270;BME280;42176;43.240;27.880;2022-07-29T01:14:34;100186.66;;;21.75;84.60
56270;BME280;42176;43.240;27.880;2022-07-29T01:17:08;100183.00;;;21.63;85.21
56270;BME280;42176;43.240;27.880;2022-07-29T01:19:49;100179.72;;;21.58;85.45
56270;BME280;42176;43.240;27.880;2022-07-29T01:27:51;100171.50;;;21.59;85.66
56270;BME280;42176;43.240;27.880;2022-07-29T01:30:18;100167.19;;;21.57;85.20
56270;BME280;42176;43.240;27.880;2022-07-29T01:32:49;100170.41;;;21.49;85.91
56270;BME280;42176;43.240;27.880;2022-07-29T01:35:25;100168.28;;;21.54;85.63
56270;BME280;42176;43.240;27.880;2022-07-29T01:38:05;100162.00;;;21.54;85.07
56270;BME280;42176;43.240;27.880;2022-07-29T01:40:48;100169.31;;;21.52;84.96
56270;BME280;42176;43.240;27.880;2022-07-29T01:43:19;100163.69;;;21.42;84.99
56270;BME280;42176;43.240;27.880;2022-07-29T01:45:53;100165.66;;;21.53;85.32
56270;BME280;42176;43.240;27.880;2022-07-29T01:48:27;100171.63;;;21.58;84.55
56270;BME280;42176;43.240;27.880;2022-07-29T01:51:07;100170.66;;;21.59;84.97
56270;BME280;42176;43.240;27.880;2022-07-29T01:53:38;100165.09;;;21.62;84.99
56270;BME280;42176;43.240;27.880;2022-07-29T01:56:08;100165.09;;;21.62;85.15
56270;BME280;42176;43.240;27.880;2022-07-29T01:58:39;100157.97;;;21.61;85.33
56270;BME280;42176;43.240;27.880;2022-07-29T02:01:06;100159.88;;;21.59;85.84
56270;BME280;42176;43.240;27.880;2022-07-29T02:03:34;100152.75;;;21.58;86.22
56270;BME280;42176;43.240;27.880;2022-07-29T02:06:02;100156.41;;;21.57;86.29
56270;BME280;42176;43.240;27.880;2022-07-29T02:08:30;100154.09;;;21.51;87.00
56270;BME280;42176;43.240;27.880;2022-07-29T02:10:59;100155.72;;;21.40;87.05
56270;BME280;42176;43.240;27.880;2022-07-29T02:13:28;100162.81;;;21.41;87.71
56270;BME280;42176;43.240;27.880;2022-07-29T02:15:55;100161.09;;;21.40;88.52
56270;BME280;42176;43.240;27.880;2022-07-29T02:18:23;100160.75;;;21.32;88.41
56270;BME280;42176;43.240;27.880;2022-07-29T02:20:52;100158.25;;;21.29;89.26
56270;BME280;42176;43.240;27.880;2022-07-29T02:23:22;100162.31;;;21.22;89.61
56270;BME280;42176;43.240;27.880;2022-07-29T02:25:49;100159.09;;;21.17;90.61
56270;BME280;42176;43.240;27.880;2022-07-29T02:28:17;100154.09;;;21.10;91.14
56270;BME280;42176;43.240;27.880;2022-07-29T02:30:43;100148.69;;;21.10;92.04
56270;BME280;42176;43.240;27.880;2022-07-29T02:33:13;100157.75;;;21.09;92.25
56270;BME280;42176;43.240;27.880;2022-07-29T02:35:40;100146.78;;;21.12;92.52
56270;BME280;42176;43.240;27.880;2022-07-29T02:38:08;100157.56;;;21.12;92.83
56270;BME280;42176;43.240;27.880;2022-07-29T02:40:53;100161.00;;;21.14;92.94
56270;BME280;42176;43.240;27.880;2022-07-29T02:43:21;100166.41;;;21.14;93.03
56270;BME280;42176;43.240;27.880;2022-07-29T02:45:51;100175.44;;;21.13;93.26
56270;BME280;42176;43.240;27.880;2022-07-29T02:48:20;100164.66;;;21.13;93.49
56270;BME280;42176;43.240;27.880;2022-07-29T02:51:00;100170.06;;;21.13;94.15
56270;BME280;42176;43.240;27.880;2022-07-29T02:53:26;100172.00;;;21.11;94.47
56270;BME280;42176;43.240;27.880;2022-07-29T02:55:57;100168.53;;;21.09;94.89
56270;BME280;42176;43.240;27.880;2022-07-29T02:58:40;100169.38;;;21.10;94.92
56270;BME280;42176;43.240;27.880;2022-07-29T03:01:20;100159.78;;;21.06;94.86
56270;BME280;42176;43.240;27.880;2022-07-29T03:03:48;100164.28;;;21.05;95.10
56270;BME280;42176;43.240;27.880;2022-07-29T03:06:15;100167.00;;;21.05;95.54
56270;BME280;42176;43.240;27.880;2022-07-29T03:08:43;100168.72;;;21.06;95.37
56270;BME280;42176;43.240;27.880;2022-07-29T03:11:10;100181.22;;;21.07;95.43
56270;BME280;42176;43.240;27.880;2022-07-29T03:13:36;100183.16;;;21.05;95.54
56270;BME280;42176;43.240;27.880;2022-07-29T03:16:03;100182.97;;;21.08;95.78
56270;BME280;42176;43.240;27.880;2022-07-29T03:18:30;100187.97;;;21.14;95.39
56270;BME280;42176;43.240;27.880;2022-07-29T03:20:56;100197.97;;;21.12;95.66
56270;BME280;42176;43.240;27.880;2022-07-29T03:23:22;100197.56;;;21.19;95.30
56270;BME280;42176;43.240;27.880;2022-07-29T03:25:49;100191.63;;;21.13;95.42
56270;BME280;42176;43.240;27.880;2022-07-29T03:28:15;100159.59;;;20.94;95.71
56270;BME280;42176;43.240;27.880;2022-07-29T03:30:40;100200.47;;;21.16;95.76
56270;BME280;42176;43.240;27.880;2022-07-29T03:33:06;100205.66;;;21.19;95.67
56270;BME280;42176;43.240;27.880;2022-07-29T03:35:31;100191.88;;;21.23;95.68
56270;BME280;42176;43.240;27.880;2022-07-29T03:37:58;100190.63;;;21.29;95.50
56270;BME280;42176;43.240;27.880;2022-07-29T03:40:35;100198.84;;;21.40;95.33
56270;BME280;42176;43.240;27.880;2022-07-29T03:43:03;100203.94;;;21.72;93.54
56270;BME280;42176;43.240;27.880;2022-07-29T03:45:30;100199.06;;;22.31;90.44
56270;BME280;42176;43.240;27.880;2022-07-29T03:48:05;100207.25;;;22.81;87.13
56270;BME280;42176;43.240;27.880;2022-07-29T03:50:33;100210.28;;;23.26;84.34
56270;BME280;42176;43.240;27.880;2022-07-29T03:52:59;100208.28;;;23.66;82.76
56270;BME280;42176;43.240;27.880;2022-07-29T03:55:26;100210.03;;;24.02;80.22
56270;BME280;42176;43.240;27.880;2022-07-29T03:57:55;100209.22;;;24.36;78.40
56270;BME280;42176;43.240;27.880;2022-07-29T04:00:24;100209.50;;;24.67;76.65
56270;BME280;42176;43.240;27.880;2022-07-29T04:02:49;100207.53;;;24.92;74.91
56270;BME280;42176;43.240;27.880;2022-07-29T04:05:17;100202.78;;;25.28;73.24
56270;BME280;42176;43.240;27.880;2022-07-29T04:07:48;100198.50;;;25.58;71.15
56270;BME280;42176;43.240;27.880;2022-07-29T04:10:15;100196.44;;;25.83;69.39
56270;BME280;42176;43.240;27.880;2022-07-29T04:12:42;100200.69;;;26.18;67.68
56270;BME280;42176;43.240;27.880;2022-07-29T04:15:08;100203.47;;;26.28;66.71
56270;BME280;42176;43.240;27.880;2022-07-29T04:17:33;100193.84;;;26.76;65.13
56270;BME280;42176;43.240;27.880;2022-07-29T04:19:59;100199.41;;;27.15;63.17
56270;BME280;42176;43.240;27.880;2022-07-29T04:22:24;100196.50;;;27.48;62.20
56270;BME280;42176;43.240;27.880;2022-07-29T04:24:50;100201.91;;;27.58;61.19
56270;BME280;42176;43.240;27.880;2022-07-29T04:27:15;100204.03;;;28.03;59.82
56270;BME280;42176;43.240;27.880;2022-07-29T04:29:41;100196.28;;;28.28;58.43
56270;BME280;42176;43.240;27.880;2022-07-29T04:32:06;100202.47;;;28.78;56.62
56270;BME280;42176;43.240;27.880;2022-07-29T04:34:32;100202.84;;;29.11;54.82
56270;BME280;42176;43.240;27.880;2022-07-29T04:36:57;100206.59;;;29.56;52.96
56270;BME280;42176;43.240;27.880;2022-07-29T04:39:23;100203.06;;;29.63;51.89
56270;BME280;42176;43.240;27.880;2022-07-29T04:41:49;100194.16;;;29.98;51.14
56270;BME280;42176;43.240;27.880;2022-07-29T04:44:15;100195.03;;;30.25;49.91
56270;BME280;42176;43.240;27.880;2022-07-29T04:46:40;100196.22;;;30.75;48.92
56270;BME280;42176;43.240;27.880;2022-07-29T04:49:06;100191.84;;;30.98;46.56
56270;BME280;42176;43.240;27.880;2022-07-29T04:51:31;100198.66;;;31.29;45.91
56270;BME280;42176;43.240;27.880;2022-07-29T04:53:57;100197.28;;;31.50;44.06
56270;BME280;42176;43.240;27.880;2022-07-29T04:56:22;100193.91;;;31.81;43.09
56270;BME280;42176;43.240;27.880;2022-07-29T04:58:48;100184.28;;;32.10;42.40
56270;BME280;42176;43.240;27.880;2022-07-29T05:01:14;100193.13;;;32.61;41.41
56270;BME280;42176;43.240;27.880;2022-07-29T05:03:40;100198.13;;;32.58;41.61
56270;BME280;42176;43.240;27.880;2022-07-29T05:06:06;100191.94;;;33.04;40.51
56270;BME280;42176;43.240;27.880;2022-07-29T05:08:31;100190.78;;;33.30;39.22
56270;BME280;42176;43.240;27.880;2022-07-29T05:10:57;100190.41;;;33.56;38.33
56270;BME280;42176;43.240;27.880;2022-07-29T05:13:22;100182.09;;;33.88;37.78
56270;BME280;42176;43.240;27.880;2022-07-29T05:15:48;100186.84;;;34.32;36.21
56270;BME280;42176;43.240;27.880;2022-07-29T05:18:14;100164.22;;;34.45;34.83
56270;BME280;42176;43.240;27.880;2022-07-29T05:20:39;100185.75;;;34.56;35.03
56270;BME280;42176;43.240;27.880;2022-07-29T05:23:05;100189.03;;;34.82;33.93
56270;BME280;42176;43.240;27.880;2022-07-29T05:25:30;100198.56;;;34.64;34.20
56270;BME280;42176;43.240;27.880;2022-07-29T05:27:56;100189.78;;;35.05;33.37
56270;BME280;42176;43.240;27.880;2022-07-29T05:30:22;100187.75;;;34.48;33.56
56270;BME280;42176;43.240;27.880;2022-07-29T05:32:47;100193.13;;;35.01;32.34
56270;BME280;42176;43.240;27.880;2022-07-29T05:35:14;100185.16;;;34.61;33.26
56270;BME280;42176;43.240;27.880;2022-07-29T05:37:39;100179.75;;;35.56;31.67
56270;BME280;42176;43.240;27.880;2022-07-29T05:40:05;100194.25;;;35.65;31.00
56270;BME280;42176;43.240;27.880;2022-07-29T05:42:31;100189.28;;;36.25;30.00
56270;BME280;42176;43.240;27.880;2022-07-29T05:44:56;100192.88;;;36.54;28.89
56270;BME280;42176;43.240;27.880;2022-07-29T05:47:23;100195.28;;;36.36;28.49
56270;BME280;42176;43.240;27.880;2022-07-29T05:49:48;100196.34;;;37.05;28.56
56270;BME280;42176;43.240;27.880;2022-07-29T05:52:14;100196.69;;;37.57;28.00
56270;BME280;42176;43.240;27.880;2022-07-29T05:54:40;100199.28;;;38.19;26.83
56270;BME280;42176;43.240;27.880;2022-07-29T05:57:06;100202.19;;;38.65;28.33
56270;BME280;42176;43.240;27.880;2022-07-29T05:59:37;100205.53;;;38.87;28.22
56270;BME280;42176;43.240;27.880;2022-07-29T06:02:03;100204.47;;;39.34;25.35
56270;BME280;42176;43.240;27.880;2022-07-29T06:04:30;100208.72;;;39.36;22.96
56270;BME280;42176;43.240;27.880;2022-07-29T06:06:56;100199.28;;;39.44;21.85
56270;BME280;42176;43.240;27.880;2022-07-29T06:09:21;100200.81;;;39.79;22.08
56270;BME280;42176;43.240;27.880;2022-07-29T06:11:48;100196.97;;;38.95;22.17
56270;BME280;42176;43.240;27.880;2022-07-29T06:14:14;100208.94;;;38.89;22.43
56270;BME280;42176;43.240;27.880;2022-07-29T06:16:39;100219.59;;;39.38;21.68
56270;BME280;42176;43.240;27.880;2022-07-29T06:19:05;100208.47;;;40.27;20.47
56270;BME280;42176;43.240;27.880;2022-07-29T06:21:31;100214.19;;;40.76;19.72
56270;BME280;42176;43.240;27.880;2022-07-29T06:23:56;100211.06;;;40.85;20.35
56270;BME280;42176;43.240;27.880;2022-07-29T06:26:22;100203.34;;;40.87;20.02
56270;BME280;42176;43.240;27.880;2022-07-29T06:28:48;100216.28;;;40.37;20.48
56270;BME280;42176;43.240;27.880;2022-07-29T06:31:14;100206.59;;;40.46;20.32
56270;BME280;42176;43.240;27.880;2022-07-29T06:33:39;100197.84;;;40.61;19.87
56270;BME280;42176;43.240;27.880;2022-07-29T06:36:05;100209.03;;;40.55;20.26
56270;BME280;42176;43.240;27.880;2022-07-29T06:38:31;100202.59;;;40.79;19.96
56270;BME280;42176;43.240;27.880;2022-07-29T06:40:56;100199.16;;;40.96;19.79
56270;BME280;42176;43.240;27.880;2022-07-29T06:43:40;100211.69;;;40.87;19.88
56270;BME280;42176;43.240;27.880;2022-07-29T06:46:11;100211.50;;;41.00;19.89
56270;BME280;42176;43.240;27.880;2022-07-29T06:48:38;100210.53;;;41.13;20.14
56270;BME280;42176;43.240;27.880;2022-07-29T06:51:05;100213.03;;;41.76;22.53
56270;BME280;42176;43.240;27.880;2022-07-29T06:53:32;100204.31;;;41.30;21.92
56270;BME280;42176;43.240;27.880;2022-07-29T06:55:58;100202.03;;;41.38;23.58
56270;BME280;42176;43.240;27.880;2022-07-29T06:58:25;100191.72;;;41.27;23.88
56270;BME280;42176;43.240;27.880;2022-07-29T07:00:51;100193.16;;;41.60;24.04
56270;BME280;42176;43.240;27.880;2022-07-29T07:03:17;100192.22;;;41.36;23.82
56270;BME280;42176;43.240;27.880;2022-07-29T07:05:43;100201.22;;;41.07;24.74
56270;BME280;42176;43.240;27.880;2022-07-29T07:08:09;100190.09;;;41.07;24.49
56270;BME280;42176;43.240;27.880;2022-07-29T07:10:35;100193.91;;;41.06;23.96
56270;BME280;42176;43.240;27.880;2022-07-29T07:13:01;100183.06;;;40.86;23.82
56270;BME280;42176;43.240;27.880;2022-07-29T07:15:27;100205.03;;;41.06;23.92
56270;BME280;42176;43.240;27.880;2022-07-29T07:17:53;100201.00;;;41.21;23.59
56270;BME280;42176;43.240;27.880;2022-07-29T07:20:18;100186.97;;;41.16;23.63
56270;BME280;42176;43.240;27.880;2022-07-29T07:22:44;100203.34;;;41.24;23.51
56270;BME280;42176;43.240;27.880;2022-07-29T07:25:10;100194.22;;;41.17;23.25
56270;BME280;42176;43.240;27.880;2022-07-29T07:27:37;100204.81;;;41.81;22.63
56270;BME280;42176;43.240;27.880;2022-07-29T07:30:04;100193.69;;;41.81;22.04
56270;BME280;42176;43.240;27.880;2022-07-29T07:32:31;100212.88;;;41.59;22.54
56270;BME280;42176;43.240;27.880;2022-07-29T07:34:57;100208.22;;;41.83;22.19
56270;BME280;42176;43.240;27.880;2022-07-29T07:37:22;100204.47;;;41.47;22.38
56270;BME280;42176;43.240;27.880;2022-07-29T07:39:50;100207.59;;;41.38;22.86
56270;BME280;42176;43.240;27.880;2022-07-29T07:42:15;100211.66;;;41.24;22.81
56270;BME280;42176;43.240;27.880;2022-07-29T07:44:41;100218.50;;;40.91;23.62
56270;BME280;42176;43.240;27.880;2022-07-29T07:47:06;100215.09;;;40.89;23.71
56270;BME280;42176;43.240;27.880;2022-07-29T07:49:32;100211.69;;;40.87;23.80
56270;BME280;42176;43.240;27.880;2022-07-29T07:51:57;100214.44;;;41.05;23.35
56270;BME280;42176;43.240;27.880;2022-07-29T07:54:22;100209.38;;;40.65;23.93
56270;BME280;42176;43.240;27.880;2022-07-29T07:56:48;100216.47;;;40.98;22.96
56270;BME280;42176;43.240;27.880;2022-07-29T07:59:15;100202.25;;;41.06;22.61
56270;BME280;42176;43.240;27.880;2022-07-29T08:01:41;100212.75;;;41.04;22.97
56270;BME280;42176;43.240;27.880;2022-07-29T08:04:06;100200.84;;;40.67;23.70
56270;BME280;42176;43.240;27.880;2022-07-29T08:06:33;100210.19;;;40.28;23.83
56270;BME280;42176;43.240;27.880;2022-07-29T08:09:00;100216.97;;;39.82;24.27
56270;BME280;42176;43.240;27.880;2022-07-29T08:11:26;100177.56;;;39.41;24.99
56270;BME280;42176;43.240;27.880;2022-07-29T08:13:51;100192.75;;;39.64;24.77
56270;BME280;42176;43.240;27.880;2022-07-29T08:16:17;100208.59;;;39.56;24.88
56270;BME280;42176;43.240;27.880;2022-07-29T08:18:44;100214.31;;;39.62;24.71
56270;BME280;42176;43.240;27.880;2022-07-29T08:21:10;100209.66;;;39.55;24.06
56270;BME280;42176;43.240;27.880;2022-07-29T08:23:36;100218.25;;;39.02;24.43
56270;BME280;42176;43.240;27.880;2022-07-29T08:26:07;100204.53;;;38.68;25.25
56270;BME280;42176;43.240;27.880;2022-07-29T08:28:39;100200.25;;;38.65;26.14
56270;BME280;42176;43.240;27.880;2022-07-29T08:31:05;100203.19;;;38.77;26.59
56270;BME280;42176;43.240;27.880;2022-07-29T08:33:32;100203.72;;;39.52;24.91
56270;BME280;42176;43.240;27.880;2022-07-29T08:35:57;100204.78;;;40.08;24.39
56270;BME280;42176;43.240;27.880;2022-07-29T08:38:23;100200.09;;;40.53;23.98
56270;BME280;42176;43.240;27.880;2022-07-29T08:40:48;100198.69;;;40.69;22.42
56270;BME280;42176;43.240;27.880;2022-07-29T08:43:14;100195.19;;;40.73;24.76
56270;BME280;42176;43.240;27.880;2022-07-29T08:45:47;100197.25;;;40.78;23.12
56270;BME280;42176;43.240;27.880;2022-07-29T08:48:15;100189.13;;;41.14;22.96
56270;BME280;42176;43.240;27.880;2022-07-29T08:50:41;100201.38;;;41.24;22.90
56270;BME280;42176;43.240;27.880;2022-07-29T08:53:11;100194.75;;;41.25;21.60
56270;BME280;42176;43.240;27.880;2022-07-29T08:55:42;100190.69;;;40.91;21.93
56270;BME280;42176;43.240;27.880;2022-07-29T08:58:09;100190.69;;;40.91;22.03
56270;BME280;42176;43.240;27.880;2022-07-29T09:00:36;100187.94;;;40.72;21.06
56270;BME280;42176;43.240;27.880;2022-07-29T09:03:04;100196.09;;;39.79;22.63
56270;BME280;42176;43.240;27.880;2022-07-29T09:05:31;100187.16;;;39.70;23.01
56270;BME280;42176;43.240;27.880;2022-07-29T09:07:57;100182.59;;;40.08;22.34
56270;BME280;42176;43.240;27.880;2022-07-29T09:10:22;100173.72;;;39.99;23.06
56270;BME280;42176;43.240;27.880;2022-07-29T09:12:48;100186.00;;;40.10;22.90
56270;BME280;42176;43.240;27.880;2022-07-29T09:15:14;100171.81;;;39.74;22.67
56270;BME280;42176;43.240;27.880;2022-07-29T09:17:45;100155.69;;;38.87;22.98
56270;BME280;42176;43.240;27.880;2022-07-29T09:20:16;100160.50;;;38.40;24.18
56270;BME280;42176;43.240;27.880;2022-07-29T09:22:41;100162.25;;;38.00;25.29
56270;BME280;42176;43.240;27.880;2022-07-29T09:25:07;100167.75;;;37.73;25.53
56270;BME280;42176;43.240;27.880;2022-07-29T09:27:33;100147.53;;;36.77;26.17
56270;BME280;42176;43.240;27.880;2022-07-29T09:30:10;100152.84;;;36.37;26.51
56270;BME280;42176;43.240;27.880;2022-07-29T09:33:00;100161.16;;;36.15;27.37
56270;BME280;42176;43.240;27.880;2022-07-29T09:35:27;100148.34;;;36.01;28.22
56270;BME280;42176;43.240;27.880;2022-07-29T09:37:53;100156.84;;;35.99;28.76
56270;BME280;42176;43.240;27.880;2022-07-29T09:40:25;100161.63;;;35.69;30.24
56270;BME280;42176;43.240;27.880;2022-07-29T09:42:51;100157.31;;;35.01;31.36
56270;BME280;42176;43.240;27.880;2022-07-29T09:45:31;100147.03;;;35.10;31.86
56270;BME280;42176;43.240;27.880;2022-07-29T09:47:58;100151.03;;;35.29;30.85
56270;BME280;42176;43.240;27.880;2022-07-29T09:50:41;100160.34;;;35.28;32.30
56270;BME280;42176;43.240;27.880;2022-07-29T09:53:08;100152.06;;;35.64;32.12
56270;BME280;42176;43.240;27.880;2022-07-29T09:55:49;100147.69;;;36.27;31.46
56270;BME280;42176;43.240;27.880;2022-07-29T09:58:20;100151.75;;;36.03;31.76
56270;BME280;42176;43.240;27.880;2022-07-29T10:00:49;100149.78;;;36.25;31.06
56270;BME280;42176;43.240;27.880;2022-07-29T10:03:16;100144.69;;;36.28;31.79
56270;BME280;42176;43.240;27.880;2022-07-29T10:05:42;100141.56;;;35.96;31.80
56270;BME280;42176;43.240;27.880;2022-07-29T10:08:09;100158.63;;;35.63;31.63
56270;BME280;42176;43.240;27.880;2022-07-29T10:10:37;100155.44;;;35.01;32.05
56270;BME280;42176;43.240;27.880;2022-07-29T10:13:09;100145.34;;;35.74;30.54
56270;BME280;42176;43.240;27.880;2022-07-29T10:15:37;100156.06;;;35.62;29.99
56270;BME280;42176;43.240;27.880;2022-07-29T10:18:06;100145.47;;;35.22;30.77
56270;BME280;42176;43.240;27.880;2022-07-29T10:20:33;100152.72;;;34.71;31.13
56270;BME280;42176;43.240;27.880;2022-07-29T10:22:58;100149.22;;;34.48;30.59
56270;BME280;42176;43.240;27.880;2022-07-29T10:25:25;100158.38;;;34.40;31.88
56270;BME280;42176;43.240;27.880;2022-07-29T10:27:51;100144.84;;;34.38;32.07
56270;BME280;42176;43.240;27.880;2022-07-29T10:30:18;100158.72;;;33.92;33.33
56270;BME280;42176;43.240;27.880;2022-07-29T10:43:45;100145.59;;;32.69;35.03
56270;BME280;42176;43.240;27.880;2022-07-29T10:46:11;100133.31;;;32.97;34.93
56270;BME280;42176;43.240;27.880;2022-07-29T10:49:12;100164.25;;;32.74;34.86
56270;BME280;42176;43.240;27.880;2022-07-29T10:54:17;100160.31;;;32.76;34.16
56270;BME280;42176;43.240;27.880;2022-07-29T10:56:43;100167.50;;;32.38;33.58
56270;BME280;42176;43.240;27.880;2022-07-29T11:01:43;100155.84;;;32.36;33.83
56270;BME280;42176;43.240;27.880;2022-07-29T11:04:09;100159.63;;;32.74;34.25
56270;BME280;42176;43.240;27.880;2022-07-29T11:09:27;100148.66;;;33.14;33.40
56270;BME280;42176;43.240;27.880;2022-07-29T11:11:58;100149.59;;;32.98;34.55
56270;BME280;42176;43.240;27.880;2022-07-29T11:17:18;100147.22;;;32.47;34.81
56270;BME280;42176;43.240;27.880;2022-07-29T11:19:44;100142.28;;;32.34;35.11
56270;BME280;42176;43.240;27.880;2022-07-29T11:22:10;100154.13;;;32.34;36.07
56270;BME280;42176;43.240;27.880;2022-07-29T11:24:37;100135.09;;;32.33;35.80
56270;BME280;42176;43.240;27.880;2022-07-29T11:27:19;100128.09;;;33.02;34.88
56270;BME280;42176;43.240;27.880;2022-07-29T11:29:52;100145.34;;;33.19;33.79
56270;BME280;42176;43.240;27.880;2022-07-29T11:32:20;100132.22;;;33.06;34.52
56270;BME280;42176;43.240;27.880;2022-07-29T11:34:47;100151.16;;;32.92;36.18
56270;BME280;42176;43.240;27.880;2022-07-29T11:37:14;100135.16;;;32.56;35.93
56270;BME280;42176;43.240;27.880;2022-07-29T11:44:58;100102.97;;;31.85;36.87
56270;BME280;42176;43.240;27.880;2022-07-29T11:47:25;100126.34;;;32.38;35.97
56270;BME280;42176;43.240;27.880;2022-07-29T11:49:55;100135.41;;;32.86;36.19
56270;BME280;42176;43.240;27.880;2022-07-29T11:52:22;100138.16;;;32.78;36.05
56270;BME280;42176;43.240;27.880;2022-07-29T11:54:49;100121.91;;;32.28;36.68
56270;BME280;42176;43.240;27.880;2022-07-29T11:57:19;100121.28;;;32.01;36.92
56270;BME280;42176;43.240;27.880;2022-07-29T11:59:46;100114.44;;;31.89;37.37
56270;BME280;42176;43.240;27.880;2022-07-29T12:02:12;100106.88;;;31.17;39.55
56270;BME280;42176;43.240;27.880;2022-07-29T12:04:55;100108.31;;;31.70;38.08
56270;BME280;42176;43.240;27.880;2022-07-29T12:07:47;100108.09;;;31.64;38.00
56270;BME280;42176;43.240;27.880;2022-07-29T12:10:14;100110.00;;;31.55;38.74
56270;BME280;42176;43.240;27.880;2022-07-29T12:12:39;100112.22;;;31.59;38.06
56270;BME280;42176;43.240;27.880;2022-07-29T12:15:26;100102.09;;;31.93;38.35
56270;BME280;42176;43.240;27.880;2022-07-29T12:17:51;100102.16;;;31.77;38.18
56270;BME280;42176;43.240;27.880;2022-07-29T12:20:28;100097.69;;;31.59;37.80
56270;BME280;42176;43.240;27.880;2022-07-29T12:22:55;100093.56;;;31.22;38.85
56270;BME280;42176;43.240;27.880;2022-07-29T12:25:22;100092.03;;;31.52;38.58
56270;BME280;42176;43.240;27.880;2022-07-29T12:27:58;100079.34;;;31.43;39.71
56270;BME280;42176;43.240;27.880;2022-07-29T12:30:43;100098.34;;;31.53;39.21
56270;BME280;42176;43.240;27.880;2022-07-29T12:33:30;100084.91;;;32.16;37.17
56270;BME280;42176;43.240;27.880;2022-07-29T12:36:00;100078.06;;;32.12;37.96
56270;BME280;42176;43.240;27.880;2022-07-29T12:38:26;100080.25;;;32.25;38.19
56270;BME280;42176;43.240;27.880;2022-07-29T12:40:53;100081.31;;;32.63;37.08
56270;BME280;42176;43.240;27.880;2022-07-29T12:43:21;100063.03;;;31.99;37.38
56270;BME280;42176;43.240;27.880;2022-07-29T12:45:52;100084.25;;;32.06;35.95
56270;BME280;42176;43.240;27.880;2022-07-29T12:48:39;100077.34;;;32.34;37.29
56270;BME280;42176;43.240;27.880;2022-07-29T12:51:06;100075.50;;;32.58;37.20
56270;BME280;42176;43.240;27.880;2022-07-29T12:53:32;100079.25;;;32.65;36.66
56270;BME280;42176;43.240;27.880;2022-07-29T12:55:58;100076.66;;;32.32;36.23
56270;BME280;42176;43.240;27.880;2022-07-29T12:58:34;100062.38;;;30.98;37.82
56270;BME280;42176;43.240;27.880;2022-07-29T13:01:08;100063.75;;;30.51;39.67
56270;BME280;42176;43.240;27.880;2022-07-29T13:03:53;100059.53;;;30.57;38.50
56270;BME280;42176;43.240;27.880;2022-07-29T13:06:39;100057.94;;;31.30;37.86
56270;BME280;42176;43.240;27.880;2022-07-29T13:09:14;100062.41;;;31.39;37.82
56270;BME280;42176;43.240;27.880;2022-07-29T13:11:51;100071.81;;;31.53;37.68
56270;BME280;42176;43.240;27.880;2022-07-29T13:14:37;100067.84;;;31.06;39.04
56270;BME280;42176;43.240;27.880;2022-07-29T13:17:11;100070.06;;;30.43;40.72
56270;BME280;42176;43.240;27.880;2022-07-29T13:19:48;100072.66;;;30.53;40.66
56270;BME280;42176;43.240;27.880;2022-07-29T13:22:16;100064.44;;;31.12;39.13